Time;durP1;ratioP1;P1;durP2;ratioP2;P2;SDS_P1;SDS_P2;PMS_P1;PMS_P2;Temp;Humidity;BMP_temperature;BMP_pressure;BME280_temperature;BME280_humidity;BME280_pressure;Samples;Min_cycle;Max_cycle;Signal;HPM_P1;HPM_P2
2021/10/06 00:02:01;;;;;;;8.38;2.65;;;11.40;99.90;;;;;;5098250;28;20577;-82
2021/10/06 00:04:27;;;;;;;7.45;3.13;;;11.30;99.90;;;;;;5068259;28;20119;-82
2021/10/06 00:06:52;;;;;;;5.93;2.80;;;11.30;99.90;;;;;;5086860;28;20046;-82
2021/10/06 00:09:18;;;;;;;9.05;3.35;;;11.30;99.90;;;;;;5083664;28;20065;-82
2021/10/06 00:11:43;;;;;;;9.90;3.60;;;11.30;99.90;;;;;;5095253;28;20036;-82
2021/10/06 00:14:11;;;;;;;9.63;3.80;;;11.20;99.90;;;;;;5063958;27;20044;-82
2021/10/06 00:16:37;;;;;;;8.32;3.72;;;11.30;99.90;;;;;;5065772;28;20463;-82
2021/10/06 00:19:04;;;;;;;12.80;3.72;;;11.30;99.90;;;;;;5068118;28;20080;-82
2021/10/06 00:21:30;;;;;;;9.95;3.70;;;11.30;99.90;;;;;;5054964;28;20051;-82
2021/10/06 00:23:55;;;;;;;9.05;3.72;;;11.20;99.90;;;;;;5098031;28;20563;-82
2021/10/06 00:26:21;;;;;;;11.00;3.70;;;11.10;99.90;;;;;;5095931;28;20039;-82
2021/10/06 00:28:47;;;;;;;8.90;3.70;;;11.10;99.90;;;;;;5096791;28;20038;-82
2021/10/06 00:31:31;;;;;;;8.32;3.70;;;11.10;99.90;;;;;;5077550;28;20047;-82
2021/10/06 00:33:57;;;;;;;10.05;3.83;;;11.40;99.90;;;;;;5098183;28;20115;-82
2021/10/06 00:36:22;;;;;;;11.55;3.38;;;11.40;99.90;;;;;;5069768;28;20150;-82
2021/10/06 00:38:48;;;;;;;12.85;4.25;;;11.50;99.90;;;;;;5080207;28;20051;-82
2021/10/06 00:41:14;;;;;;;11.55;3.80;;;11.00;99.90;;;;;;5097917;28;20054;-82
2021/10/06 00:43:40;;;;;;;9.73;3.63;;;11.10;99.90;;;;;;5076809;28;20518;-82
2021/10/06 00:46:05;;;;;;;9.68;4.13;;;11.40;99.90;;;;;;5062274;28;20383;-82
2021/10/06 00:48:31;;;;;;;8.63;3.88;;;10.80;99.90;;;;;;5077742;28;20035;-82
2021/10/06 00:50:57;;;;;;;9.32;4.07;;;10.60;99.90;;;;;;5079010;28;20059;-82
2021/10/06 00:53:26;;;;;;;11.93;4.50;;;10.80;99.90;;;;;;5057187;28;20109;-82
2021/10/06 00:55:55;;;;;;;12.77;3.65;;;10.80;99.90;;;;;;5058085;28;20048;-82
2021/10/06 00:58:21;;;;;;;7.88;3.40;;;10.70;99.90;;;;;;5059073;28;20050;-82
2021/10/06 01:00:47;;;;;;;9.73;3.08;;;10.70;99.90;;;;;;5079867;28;20082;-82
2021/10/06 01:03:14;;;;;;;9.85;3.90;;;10.70;99.90;;;;;;5099612;28;20068;-82
2021/10/06 01:05:40;;;;;;;13.85;3.53;;;10.60;99.90;;;;;;5056824;28;20474;-83
2021/10/06 01:08:07;;;;;;;8.90;3.55;;;10.70;99.90;;;;;;5061100;28;20071;-82
2021/10/06 01:10:33;;;;;;;10.93;3.45;;;10.90;99.90;;;;;;5103723;28;20040;-82
2021/10/06 01:12:59;;;;;;;9.48;3.00;;;10.60;99.90;;;;;;5082749;28;20042;-82
2021/10/06 01:15:26;;;;;;;12.95;3.17;;;10.60;99.90;;;;;;5080911;28;20114;-83
2021/10/06 01:17:52;;;;;;;10.13;3.00;;;10.70;99.90;;;;;;5103210;28;20043;-83
2021/10/06 01:20:18;;;;;;;11.10;3.10;;;11.30;99.90;;;;;;5082939;28;20059;-82
2021/10/06 01:22:44;;;;;;;8.07;2.72;;;10.60;99.90;;;;;;5068326;28;20050;-82
2021/10/06 01:25:13;;;;;;;7.22;2.80;;;10.70;99.90;;;;;;5102197;28;20489;-82
2021/10/06 01:27:39;;;;;;;16.40;3.20;;;10.70;99.90;;;;;;5107719;28;20439;-83
2021/10/06 01:30:07;;;;;;;9.48;2.53;;;10.90;99.90;;;;;;5082298;28;20036;-83
2021/10/06 01:32:38;;;;;;;8.00;2.33;;;10.80;99.90;;;;;;5084347;28;20088;-83
2021/10/06 01:35:09;;;;;;;7.95;2.10;;;10.80;99.90;;;;;;5064280;28;20351;-83
2021/10/06 01:37:35;;;;;;;8.80;2.17;;;10.80;99.90;;;;;;5103135;27;20043;-82
2021/10/06 01:40:04;;;;;;;6.97;2.15;;;10.80;99.90;;;;;;5086416;28;20039;-83
2021/10/06 01:42:30;;;;;;;9.70;2.47;;;10.90;99.90;;;;;;5083221;28;20131;-83
2021/10/06 01:44:56;;;;;;;7.15;2.40;;;10.90;99.90;;;;;;5066821;28;20525;-84
2021/10/06 01:47:24;;;;;;;9.65;2.10;;;10.80;99.90;;;;;;5088438;28;20389;-83
2021/10/06 01:49:51;;;;;;;8.18;2.33;;;10.80;99.90;;;;;;5079637;28;20584;-83
2021/10/06 01:52:18;;;;;;;9.75;2.20;;;10.80;99.90;;;;;;5101258;28;20122;-83
2021/10/06 01:54:44;;;;;;;15.73;2.40;;;10.80;99.90;;;;;;5063595;28;20511;-83
2021/10/06 01:57:10;;;;;;;10.55;2.22;;;10.80;99.90;;;;;;5104089;28;20035;-84
2021/10/06 01:59:36;;;;;;;10.57;2.28;;;10.90;99.90;;;;;;5081242;28;20086;-83
2021/10/06 02:02:02;;;;;;;8.07;2.25;;;10.80;99.90;;;;;;5078417;28;20036;-84
2021/10/06 02:04:28;;;;;;;12.93;2.40;;;10.80;99.90;;;;;;5077400;28;20035;-83
2021/10/06 02:06:54;;;;;;;8.98;1.70;;;10.80;99.90;;;;;;5062642;28;20538;-83
2021/10/06 02:09:19;;;;;;;9.13;2.60;;;10.80;99.90;;;;;;5082440;28;20114;-83
2021/10/06 02:11:45;;;;;;;9.32;2.53;;;10.80;99.90;;;;;;5064848;28;20044;-84
2021/10/06 02:14:14;;;;;;;9.40;2.13;;;10.80;99.90;;;;;;5083177;28;20404;-83
2021/10/06 02:16:40;;;;;;;8.43;2.55;;;10.90;99.90;;;;;;5067475;28;20036;-83
2021/10/06 02:19:07;;;;;;;5.03;2.40;;;10.90;99.90;;;;;;5100678;28;20061;-83
2021/10/06 02:21:34;;;;;;;10.02;2.58;;;10.90;99.90;;;;;;5059726;28;20075;-83
2021/10/06 02:24:01;;;;;;;9.52;2.80;;;10.90;99.90;;;;;;5098192;28;20403;-84
2021/10/06 02:26:27;;;;;;;8.80;3.03;;;11.40;99.90;;;;;;5097412;28;20024;-84
2021/10/06 02:28:52;;;;;;;8.70;3.05;;;10.80;99.90;;;;;;5086940;28;20131;-83
2021/10/06 02:31:18;;;;;;;10.05;2.95;;;11.20;99.90;;;;;;5080364;28;20039;-83
2021/10/06 02:33:43;;;;;;;7.35;3.03;;;11.10;99.90;;;;;;5094572;28;20100;-83
2021/10/06 02:36:09;;;;;;;7.68;2.70;;;10.90;99.90;;;;;;5078789;28;20040;-84
2021/10/06 02:38:35;;;;;;;8.23;2.63;;;10.90;99.90;;;;;;5062852;28;20031;-83
2021/10/06 02:41:00;;;;;;;14.60;3.35;;;11.00;99.90;;;;;;5096377;28;20047;-83
2021/10/06 02:43:26;;;;;;;8.30;3.35;;;10.90;99.90;;;;;;5084603;28;20052;-84
2021/10/06 02:45:52;;;;;;;11.80;3.38;;;11.00;99.90;;;;;;5081592;28;20036;-83
2021/10/06 02:48:17;;;;;;;7.47;3.70;;;11.10;99.90;;;;;;5081362;28;20046;-84
2021/10/06 02:50:45;;;;;;;11.55;3.40;;;11.50;99.90;;;;;;5076574;28;20483;-83
2021/10/06 02:53:10;;;;;;;7.43;3.00;;;11.00;99.90;;;;;;5099453;27;20047;-83
2021/10/06 02:55:36;;;;;;;12.80;3.35;;;11.00;99.90;;;;;;5083968;28;20044;-83
2021/10/06 02:58:01;;;;;;;12.02;3.72;;;11.00;99.90;;;;;;5077667;28;20047;-84
2021/10/06 03:00:27;;;;;;;6.72;3.15;;;11.40;99.90;;;;;;5067407;28;20046;-84
2021/10/06 03:02:53;;;;;;;11.07;4.00;;;11.00;99.90;;;;;;5091844;27;20097;-83
2021/10/06 03:05:18;;;;;;;7.95;3.30;;;11.00;99.90;;;;;;5068843;28;20402;-83
2021/10/06 03:07:46;;;;;;;10.05;3.78;;;11.00;99.90;;;;;;5062823;28;20363;-84
2021/10/06 03:10:13;;;;;;;9.93;3.85;;;11.00;99.90;;;;;;5098064;28;20120;-84
2021/10/06 03:12:39;;;;;;;12.32;4.25;;;11.00;99.90;;;;;;5080986;28;20053;-85
2021/10/06 03:15:06;;;;;;;12.75;3.80;;;11.00;99.90;;;;;;5083194;28;20067;-84
2021/10/06 03:17:32;;;;;;;10.10;3.72;;;11.00;99.90;;;;;;5059382;28;20044;-83
2021/10/06 03:19:58;;;;;;;8.32;3.92;;;11.20;99.90;;;;;;5063584;28;20040;-84
2021/10/06 03:22:25;;;;;;;11.45;4.22;;;11.00;99.90;;;;;;5058209;28;20385;-84
2021/10/06 03:24:50;;;;;;;8.93;3.78;;;11.30;99.90;;;;;;5083934;28;20050;-84
2021/10/06 03:27:18;;;;;;;10.40;4.20;;;11.30;99.90;;;;;;5060642;28;20126;-84
2021/10/06 03:29:44;;;;;;;11.52;4.40;;;11.00;99.90;;;;;;5085674;28;20046;-84
2021/10/06 03:32:12;;;;;;;11.35;4.38;;;11.00;99.90;;;;;;5086530;28;20126;-84
2021/10/06 03:34:38;;;;;;;10.23;4.57;;;11.20;99.90;;;;;;5081384;28;20114;-84
2021/10/06 03:37:04;;;;;;;12.18;4.18;;;11.10;99.90;;;;;;5076620;28;20044;-84
2021/10/06 03:39:29;;;;;;;9.07;4.28;;;11.10;99.90;;;;;;5095555;28;20340;-84
2021/10/06 03:41:55;;;;;;;13.85;4.60;;;11.10;99.90;;;;;;5078336;28;20130;-84
2021/10/06 03:44:21;;;;;;;11.00;4.30;;;11.10;99.90;;;;;;5079606;28;20446;-84
2021/10/06 03:46:46;;;;;;;10.38;4.50;;;11.10;99.90;;;;;;5096452;27;20313;-84
2021/10/06 03:49:12;;;;;;;11.80;4.78;;;11.10;99.90;;;;;;5084211;28;20050;-84
2021/10/06 03:51:38;;;;;;;17.23;5.05;;;11.10;99.90;;;;;;5078455;28;20723;-83
2021/10/06 03:54:03;;;;;;;11.38;4.43;;;11.10;99.90;;;;;;5079261;28;20055;-83
2021/10/06 03:56:29;;;;;;;12.32;5.03;;;11.50;99.90;;;;;;5094970;28;20036;-84
2021/10/06 03:58:55;;;;;;;13.05;4.90;;;11.60;99.90;;;;;;5077359;28;20088;-83
2021/10/06 04:01:20;;;;;;;12.32;5.28;;;11.20;99.90;;;;;;5079165;28;20040;-83
2021/10/06 04:03:46;;;;;;;11.00;5.45;;;11.60;99.90;;;;;;5061214;28;20044;-83
2021/10/06 04:06:12;;;;;;;12.02;5.78;;;11.00;99.90;;;;;;5065567;28;20044;-83
2021/10/06 04:08:37;;;;;;;12.00;5.85;;;11.00;99.90;;;;;;5067888;28;20140;-83
2021/10/06 04:11:03;;;;;;;14.25;6.25;;;11.70;99.90;;;;;;5078013;28;20081;-84
2021/10/06 04:13:28;;;;;;;11.98;5.40;;;11.00;99.90;;;;;;5059572;28;20043;-83
2021/10/06 04:15:54;;;;;;;12.00;6.00;;;11.00;99.90;;;;;;5067976;28;20035;-83
2021/10/06 04:18:20;;;;;;;15.52;6.30;;;11.00;99.90;;;;;;5074532;28;20443;-83
2021/10/06 04:20:45;;;;;;;15.48;5.82;;;11.30;99.90;;;;;;5078984;28;20035;-83
2021/10/06 04:23:12;;;;;;;13.15;5.72;;;11.40;99.90;;;;;;5079118;28;21800;-83
2021/10/06 04:25:38;;;;;;;11.20;5.50;;;11.10;99.90;;;;;;5085464;28;20039;-83
2021/10/06 04:28:04;;;;;;;9.40;4.88;;;11.00;99.90;;;;;;5060468;28;20024;-84
2021/10/06 04:30:30;;;;;;;11.98;4.63;;;11.00;99.90;;;;;;5061105;28;20024;-83
2021/10/06 04:32:56;;;;;;;12.80;4.65;;;11.00;99.90;;;;;;5062589;28;20474;-83
2021/10/06 04:35:22;;;;;;;12.10;4.45;;;11.00;99.90;;;;;;5063689;28;20044;-83
2021/10/06 04:37:47;;;;;;;11.00;4.50;;;11.00;99.90;;;;;;5084893;28;20071;-84
2021/10/06 04:40:13;;;;;;;8.45;4.15;;;11.10;99.90;;;;;;5083135;28;20036;-84
2021/10/06 04:42:39;;;;;;;10.07;3.55;;;11.40;99.90;;;;;;5061934;28;20520;-83
2021/10/06 04:45:06;;;;;;;7.68;3.30;;;11.30;99.90;;;;;;5072511;28;20397;-83
2021/10/06 04:47:32;;;;;;;7.43;3.95;;;10.90;99.90;;;;;;5078306;28;20390;-85
2021/10/06 04:49:58;;;;;;;11.02;3.40;;;10.90;99.90;;;;;;5081855;28;20032;-82
2021/10/06 04:52:23;;;;;;;11.20;3.45;;;10.90;99.90;;;;;;5077244;28;20065;-82
2021/10/06 04:54:52;;;;;;;9.43;3.20;;;11.00;99.90;;;;;;5090614;28;20097;-83
2021/10/06 04:57:18;;;;;;;13.98;3.10;;;11.00;99.90;;;;;;5065153;28;20040;-82
2021/10/06 04:59:44;;;;;;;10.80;2.70;;;10.90;99.90;;;;;;5102531;28;20119;-82
2021/10/06 05:02:10;;;;;;;8.80;2.90;;;11.00;99.90;;;;;;5082879;28;20123;-81
2021/10/06 05:04:35;;;;;;;12.23;2.55;;;10.90;99.90;;;;;;5102935;28;20032;-83
2021/10/06 05:07:01;;;;;;;9.48;2.55;;;11.00;99.90;;;;;;5080379;28;20478;-84
2021/10/06 05:09:26;;;;;;;6.70;2.40;;;10.90;99.90;;;;;;5066768;28;20074;-85
2021/10/06 05:11:52;;;;;;;12.18;2.60;;;10.90;99.90;;;;;;5064451;28;20078;-85
2021/10/06 05:14:18;;;;;;;11.52;2.55;;;10.90;99.90;;;;;;5064115;28;20068;-82
2021/10/06 05:16:43;;;;;;;9.65;2.60;;;10.80;99.90;;;;;;5068301;28;20036;-80
2021/10/06 05:19:12;;;;;;;7.95;2.47;;;11.10;99.90;;;;;;5077304;28;20093;-79
2021/10/06 05:21:41;;;;;;;10.20;2.35;;;10.70;99.90;;;;;;5078687;28;20063;-86
2021/10/06 05:24:07;;;;;;;9.18;2.38;;;10.90;99.90;;;;;;5103219;28;20096;-86
2021/10/06 05:26:33;;;;;;;4.65;1.90;;;11.30;99.90;;;;;;5064498;28;20110;-84
2021/10/06 05:28:58;;;;;;;9.10;2.42;;;10.80;99.90;;;;;;5082764;28;20111;-84
2021/10/06 05:31:24;;;;;;;9.35;2.30;;;10.80;99.90;;;;;;5088359;28;20101;-84
2021/10/06 05:33:49;;;;;;;6.25;2.28;;;10.80;99.90;;;;;;5085385;28;20043;-84
2021/10/06 05:36:16;;;;;;;8.18;2.20;;;11.20;99.90;;;;;;5082511;28;20123;-84
2021/10/06 05:38:42;;;;;;;6.43;2.10;;;10.80;99.90;;;;;;5065468;28;20090;-84
2021/10/06 05:41:08;;;;;;;10.50;2.47;;;10.90;99.90;;;;;;5061829;28;20063;-81
2021/10/06 05:43:34;;;;;;;7.03;2.95;;;10.90;99.90;;;;;;5064603;28;20048;-79
2021/10/06 05:46:00;;;;;;;8.40;2.50;;;10.90;99.90;;;;;;5061846;28;20038;-80
2021/10/06 05:48:26;;;;;;;9.38;2.90;;;10.90;99.90;;;;;;5098233;28;20036;-83
2021/10/06 05:50:52;;;;;;;9.60;2.90;;;10.90;99.90;;;;;;5081890;28;20342;-83
2021/10/06 05:53:18;;;;;;;7.50;3.28;;;10.90;99.90;;;;;;5065119;28;20051;-82
2021/10/06 05:55:44;;;;;;;10.80;3.20;;;10.90;99.90;;;;;;5062480;28;20050;-83
2021/10/06 05:58:10;;;;;;;7.65;3.38;;;10.90;99.90;;;;;;5088622;28;20043;-84
2021/10/06 06:00:35;;;;;;;12.70;3.75;;;10.90;99.90;;;;;;5067871;28;20039;-83
2021/10/06 06:03:01;;;;;;;7.60;3.53;;;11.00;99.90;;;;;;5082105;28;20039;-83
2021/10/06 06:05:27;;;;;;;6.40;3.17;;;11.00;99.90;;;;;;5101505;27;20081;-84
2021/10/06 06:07:53;;;;;;;10.07;3.78;;;10.90;99.90;;;;;;5080465;28;20115;-84
2021/10/06 06:10:18;;;;;;;8.13;3.38;;;11.10;99.90;;;;;;5070299;28;20044;-79
2021/10/06 06:12:44;;;;;;;6.70;3.20;;;10.90;99.90;;;;;;5060993;28;20040;-82
2021/10/06 06:15:11;;;;;;;7.60;3.35;;;10.90;99.90;;;;;;5077595;28;20071;-83
2021/10/06 06:17:37;;;;;;;12.18;3.60;;;11.30;99.90;;;;;;5110600;27;20046;-82
2021/10/06 06:20:15;;;;;;;6.30;2.92;;;10.90;99.90;;;;;;5067901;28;20047;-84
2021/10/06 06:22:41;;;;;;;9.90;3.47;;;11.00;99.90;;;;;;5087588;28;20036;-83
2021/10/06 06:25:09;;;;;;;6.40;3.08;;;10.90;99.90;;;;;;5077794;28;20044;-83
2021/10/06 06:27:35;;;;;;;9.65;4.03;;;10.90;99.90;;;;;;5065705;28;20057;-82
2021/10/06 06:30:01;;;;;;;11.90;5.20;;;10.90;99.90;;;;;;5096916;28;20063;-85
2021/10/06 06:32:26;;;;;;;10.10;3.65;;;10.90;99.90;;;;;;5064258;28;20070;-85
2021/10/06 06:34:53;;;;;;;7.25;2.92;;;10.90;99.90;;;;;;5077308;28;20051;-85
2021/10/06 06:37:18;;;;;;;7.22;3.00;;;10.90;99.90;;;;;;5072975;28;20075;-82
2021/10/06 06:39:44;;;;;;;4.90;2.67;;;10.90;99.90;;;;;;5083137;28;20150;-82
2021/10/06 06:42:10;;;;;;;5.90;2.70;;;11.00;99.90;;;;;;5093412;28;20139;-84
2021/10/06 06:44:36;;;;;;;6.25;2.40;;;11.00;99.90;;;;;;5073924;28;20059;-84
2021/10/06 06:47:01;;;;;;;8.18;2.80;;;11.00;99.90;;;;;;5065666;28;20039;-83
2021/10/06 06:49:27;;;;;;;6.60;3.00;;;11.00;99.90;;;;;;5083508;28;20040;-84
2021/10/06 06:51:53;;;;;;;4.95;2.50;;;11.10;99.90;;;;;;5063787;28;20094;-85
2021/10/06 06:54:19;;;;;;;6.75;2.53;;;11.20;99.90;;;;;;5065301;28;20063;-83
2021/10/06 06:56:44;;;;;;;8.50;3.00;;;11.20;99.90;;;;;;5086435;28;20055;-85
2021/10/06 06:59:10;;;;;;;5.78;2.80;;;11.30;99.90;;;;;;5062876;28;20084;-86
2021/10/06 07:01:36;;;;;;;6.90;2.70;;;11.30;99.90;;;;;;5067322;28;20040;-85
2021/10/06 07:04:20;;;;;;;7.03;2.78;;;11.40;99.90;;;;;;5082509;28;20048;-85
2021/10/06 07:06:46;;;;;;;4.75;2.60;;;11.30;99.90;;;;;;5096597;28;20443;-85
2021/10/06 07:09:11;;;;;;;4.43;2.78;;;11.50;99.90;;;;;;5091083;28;20082;-85
2021/10/06 07:11:37;;;;;;;5.53;2.75;;;11.60;99.90;;;;;;5072095;28;20125;-83
2021/10/06 07:14:03;;;;;;;10.18;3.10;;;11.50;99.90;;;;;;5089105;28;20147;-85
2021/10/06 07:16:29;;;;;;;7.50;2.60;;;11.50;99.90;;;;;;5079861;28;20483;-87
2021/10/06 07:19:14;;;;;;;6.15;2.92;;;11.50;99.90;;;;;;5063551;28;20036;-85
2021/10/06 07:21:46;;;;;;;6.05;2.78;;;11.60;99.90;;;;;;5087693;28;20055;-83
2021/10/06 07:24:13;;;;;;;5.55;2.50;;;11.70;99.90;;;;;;5061880;28;20036;-86
2021/10/06 07:26:53;;;;;;;7.90;2.80;;;12.10;99.90;;;;;;5058497;28;20090;-86
2021/10/06 07:29:28;;;;;;;4.22;2.22;;;11.70;99.90;;;;;;5059203;28;20039;-88
2021/10/06 07:31:56;;;;;;;5.97;2.55;;;11.70;99.90;;;;;;5062296;28;20043;-87
2021/10/06 07:34:21;;;;;;;3.85;2.20;;;11.80;99.90;;;;;;5059223;28;20079;-85
2021/10/06 07:36:50;;;;;;;4.45;2.22;;;11.90;99.90;;;;;;5092896;28;20082;-86
2021/10/06 07:39:15;;;;;;;6.72;2.50;;;12.00;99.90;;;;;;5075538;28;20522;-87
2021/10/06 07:41:42;;;;;;;4.50;2.25;;;12.10;99.90;;;;;;5059428;28;20091;-87
2021/10/06 07:44:07;;;;;;;4.50;2.08;;;12.10;99.90;;;;;;5079566;28;20540;-87
2021/10/06 07:46:33;;;;;;;8.27;2.58;;;12.10;99.90;;;;;;5078458;28;20036;-87
2021/10/06 07:48:59;;;;;;;4.38;1.77;;;12.20;99.90;;;;;;5065829;28;20036;-87
2021/10/06 07:51:25;;;;;;;5.38;1.80;;;12.20;99.90;;;;;;5059307;28;20044;-87
2021/10/06 07:53:50;;;;;;;4.38;1.70;;;12.20;99.90;;;;;;5069520;28;20568;-86
2021/10/06 07:56:16;;;;;;;5.05;1.70;;;12.30;99.90;;;;;;5078726;28;20040;-86
2021/10/06 07:58:42;;;;;;;4.78;1.90;;;12.30;99.90;;;;;;5067284;28;20057;-87
2021/10/06 08:01:08;;;;;;;4.38;1.73;;;12.30;99.90;;;;;;5058468;28;20432;-86
2021/10/06 08:03:34;;;;;;;5.90;2.08;;;12.20;99.90;;;;;;5077025;28;20169;-87
2021/10/06 08:06:00;;;;;;;3.90;1.83;;;12.40;99.90;;;;;;5078159;28;20118;-87
2021/10/06 08:08:28;;;;;;;4.00;1.67;;;12.20;99.90;;;;;;5092806;28;20036;-86
2021/10/06 08:10:59;;;;;;;4.07;1.75;;;12.30;99.90;;;;;;5078646;28;20548;-87
2021/10/06 08:13:25;;;;;;;4.57;1.67;;;12.20;99.90;;;;;;5078126;28;20039;-87
2021/10/06 08:15:51;;;;;;;4.10;1.80;;;12.20;99.90;;;;;;5075627;28;20041;-86
2021/10/06 08:18:19;;;;;;;3.10;1.48;;;12.30;99.90;;;;;;5075427;28;20115;-85
2021/10/06 08:20:50;;;;;;;2.45;1.30;;;12.40;99.90;;;;;;5074314;28;20066;-87
2021/10/06 08:23:17;;;;;;;2.47;1.40;;;12.40;99.90;;;;;;5077656;28;20046;-87
2021/10/06 08:25:44;;;;;;;3.50;1.40;;;12.50;99.90;;;;;;5072074;28;20034;-87
2021/10/06 08:28:10;;;;;;;2.90;1.38;;;12.50;99.90;;;;;;5095336;28;20031;-86
2021/10/06 08:30:36;;;;;;;2.42;1.50;;;12.50;99.90;;;;;;5076011;28;20036;-88
2021/10/06 08:33:02;;;;;;;4.00;1.30;;;12.60;99.90;;;;;;5097819;28;20057;-85
2021/10/06 08:35:28;;;;;;;4.47;1.50;;;12.60;99.90;;;;;;5079160;28;20048;-87
2021/10/06 08:37:54;;;;;;;2.63;1.38;;;12.50;99.90;;;;;;5062630;28;20139;-86
2021/10/06 08:40:20;;;;;;;3.20;1.40;;;12.60;99.90;;;;;;5081813;28;20340;-87
2021/10/06 08:42:45;;;;;;;2.47;1.45;;;12.60;99.90;;;;;;5077928;28;20436;-87
2021/10/06 08:45:11;;;;;;;2.28;1.30;;;12.60;99.90;;;;;;5083542;28;20039;-88
2021/10/06 08:47:39;;;;;;;4.90;1.50;;;12.60;99.90;;;;;;5088964;28;20324;-87
2021/10/06 08:50:08;;;;;;;1.95;1.40;;;12.60;99.90;;;;;;5076504;28;20634;-86
2021/10/06 08:52:34;;;;;;;3.22;1.63;;;12.70;99.90;;;;;;5091567;28;20035;-86
2021/10/06 08:55:05;;;;;;;1.65;1.40;;;12.80;99.90;;;;;;5076307;28;20042;-87
2021/10/06 08:57:32;;;;;;;2.53;1.52;;;12.90;99.90;;;;;;5071726;28;20435;-87
2021/10/06 08:59:58;;;;;;;3.08;1.50;;;12.90;99.90;;;;;;5077068;28;20036;-87
2021/10/06 09:02:24;;;;;;;3.05;1.45;;;13.00;99.90;;;;;;5056180;28;20044;-86
2021/10/06 09:04:50;;;;;;;3.70;1.40;;;13.00;99.90;;;;;;5100022;28;20046;-87
2021/10/06 09:07:16;;;;;;;2.65;1.52;;;13.00;99.90;;;;;;5091150;28;20122;-86
2021/10/06 09:09:42;;;;;;;3.20;1.55;;;13.00;99.90;;;;;;5076923;28;20101;-86
2021/10/06 09:12:17;;;;;;;4.40;1.60;;;13.10;99.90;;;;;;5078063;28;20432;-86
2021/10/06 09:14:45;;;;;;;3.17;1.40;;;13.30;99.90;;;;;;5099557;28;20062;-87
2021/10/06 09:17:13;;;;;;;2.53;1.63;;;13.50;99.90;;;;;;5073510;28;20036;-85
2021/10/06 09:19:40;;;;;;;4.07;1.58;;;13.50;99.90;;;;;;5066628;28;20126;-86
2021/10/06 09:22:16;;;;;;;3.25;1.42;;;13.60;99.90;;;;;;5092020;28;20047;-87
2021/10/06 09:25:06;;;;;;;3.88;1.55;;;13.60;99.90;;;;;;5076902;28;20517;-87
2021/10/06 09:27:35;;;;;;;3.47;2.03;;;13.60;99.90;;;;;;5065799;28;20485;-86
2021/10/06 09:30:09;;;;;;;4.75;2.25;;;13.50;99.90;;;;;;5073769;28;20044;-86
2021/10/06 09:32:40;;;;;;;2.90;1.50;;;13.50;99.90;;;;;;5088541;28;20039;-87
2021/10/06 09:35:16;;;;;;;2.63;1.80;;;13.50;99.90;;;;;;5072698;28;20048;-87
2021/10/06 09:37:52;;;;;;;5.05;1.80;;;13.50;99.90;;;;;;5096573;28;20075;-86
2021/10/06 09:40:24;;;;;;;4.00;2.03;;;13.30;99.90;;;;;;5078253;28;20044;-86
2021/10/06 09:42:55;;;;;;;2.80;1.80;;;13.40;99.90;;;;;;5078763;28;20062;-87
2021/10/06 09:45:32;;;;;;;3.25;1.70;;;13.30;99.90;;;;;;5100857;28;20111;-86
2021/10/06 09:48:16;;;;;;;5.05;2.25;;;13.30;99.90;;;;;;5098621;28;20039;-86
2021/10/06 09:50:43;;;;;;;4.40;2.20;;;13.40;99.90;;;;;;5084774;28;20047;-87
2021/10/06 09:53:10;;;;;;;4.15;2.10;;;13.40;99.90;;;;;;5078346;28;20051;-86
2021/10/06 09:55:37;;;;;;;3.97;1.90;;;13.60;99.90;;;;;;5080747;28;20455;-86
2021/10/06 09:58:03;;;;;;;4.10;2.08;;;13.70;99.90;;;;;;5080115;28;20047;-87
2021/10/06 10:00:29;;;;;;;3.58;1.83;;;13.90;99.90;;;;;;5080165;28;20046;-86
2021/10/06 10:02:56;;;;;;;2.42;1.77;;;14.10;99.90;;;;;;5080166;28;20090;-86
2021/10/06 10:05:22;;;;;;;2.78;1.70;;;14.20;99.90;;;;;;5061882;28;20071;-86
2021/10/06 10:07:50;;;;;;;4.70;1.80;;;14.30;99.90;;;;;;5092467;28;20082;-86
2021/10/06 10:10:16;;;;;;;2.95;1.83;;;14.60;99.90;;;;;;5076283;28;20044;-86
2021/10/06 10:12:42;;;;;;;3.78;2.10;;;14.80;99.90;;;;;;5071854;28;20122;-86
2021/10/06 10:15:10;;;;;;;6.07;2.10;;;15.00;99.90;;;;;;5105027;28;20364;-87
2021/10/06 10:17:36;;;;;;;3.92;1.77;;;15.40;99.90;;;;;;5061436;28;20047;-86
2021/10/06 10:20:12;;;;;;;5.07;1.80;;;15.70;99.90;;;;;;5093618;28;20039;-86
2021/10/06 10:22:43;;;;;;;2.95;1.60;;;15.70;99.90;;;;;;5076151;28;20513;-86
2021/10/06 10:25:23;;;;;;;3.58;1.60;;;15.80;99.90;;;;;;5077093;28;20029;-86
2021/10/06 10:28:07;;;;;;;4.68;1.77;;;15.80;99.90;;;;;;5094726;28;20074;-87
2021/10/06 10:30:35;;;;;;;2.72;1.35;;;15.60;99.90;;;;;;5093371;28;20035;-87
2021/10/06 10:33:00;;;;;;;3.13;1.33;;;15.70;99.90;;;;;;5059473;28;20040;-86
2021/10/06 10:35:42;;;;;;;2.60;1.30;;;16.00;99.90;;;;;;5058317;28;20536;-87
2021/10/06 10:38:10;;;;;;;3.45;1.40;;;16.30;99.90;;;;;;5059600;28;20032;-86
2021/10/06 10:40:42;;;;;;;4.18;1.50;;;16.60;99.90;;;;;;5058486;28;20031;-87
2021/10/06 10:43:19;;;;;;;4.30;1.50;;;16.60;99.90;;;;;;5057775;28;20082;-86
2021/10/06 10:45:49;;;;;;;4.57;1.30;;;16.50;99.90;;;;;;5058866;28;20479;-86
2021/10/06 10:48:15;;;;;;;4.18;1.58;;;16.50;99.90;;;;;;5061614;28;20047;-87
2021/10/06 10:50:43;;;;;;;4.80;1.52;;;16.50;99.90;;;;;;5078334;28;20089;-87
2021/10/06 10:53:21;;;;;;;5.70;2.35;;;16.50;99.90;;;;;;5099074;28;20146;-86
2021/10/06 10:55:52;;;;;;;5.35;1.70;;;16.50;99.90;;;;;;5077822;28;20036;-87
2021/10/06 10:58:35;;;;;;;2.70;1.40;;;16.50;99.90;;;;;;5084529;28;20043;-85
2021/10/06 11:01:05;;;;;;;5.10;1.10;;;16.60;99.90;;;;;;5094779;28;20040;-82
2021/10/06 11:03:31;;;;;;;4.03;1.25;;;16.70;99.90;;;;;;5089784;28;20046;-84
2021/10/06 11:05:58;;;;;;;4.15;1.38;;;16.80;99.90;;;;;;5111412;28;20188;-85
2021/10/06 11:08:27;;;;;;;4.38;1.90;;;16.60;99.90;;;;;;5064065;28;20042;-84
2021/10/06 11:11:12;;;;;;;5.57;1.40;;;17.00;99.90;;;;;;5070265;28;20118;-82
2021/10/06 11:13:40;;;;;;;6.22;1.40;;;17.50;99.90;;;;;;5101232;28;20065;-83
2021/10/06 11:16:07;;;;;;;4.72;1.20;;;17.80;99.90;;;;;;5063748;28;20122;-82
2021/10/06 11:18:57;;;;;;;3.67;1.08;;;18.00;99.90;;;;;;5060160;28;20051;-82
2021/10/06 11:21:41;;;;;;;2.15;0.95;;;18.10;99.90;;;;;;5107671;28;20070;-85
2021/10/06 11:24:22;;;;;;;3.03;0.93;;;18.40;99.90;;;;;;5075887;28;20089;-82
2021/10/06 11:26:57;;;;;;;10.73;1.27;;;18.90;99.90;;;;;;5063642;28;20036;-83
2021/10/06 11:29:26;;;;;;;2.55;0.88;;;19.10;99.90;;;;;;5061347;28;20058;-81
2021/10/06 11:32:02;;;;;;;3.58;1.15;;;19.10;99.90;;;;;;5088271;27;20039;-83
2021/10/06 11:34:27;;;;;;;2.55;1.15;;;18.90;99.90;;;;;;5090453;28;20128;-85
2021/10/06 11:36:54;;;;;;;4.28;1.00;;;19.30;99.90;;;;;;5058750;28;20083;-83
2021/10/06 11:39:27;;;;;;;2.65;0.90;;;19.50;99.90;;;;;;5057300;28;20055;-84
2021/10/06 11:41:57;;;;;;;3.38;1.00;;;19.60;99.90;;;;;;5055701;28;20360;-86
2021/10/06 11:44:28;;;;;;;2.60;0.95;;;19.90;99.90;;;;;;5087640;28;20044;-86
2021/10/06 11:47:10;;;;;;;2.05;0.98;;;20.10;99.90;;;;;;5104726;28;20089;-83
2021/10/06 11:50:39;;;;;;;2.40;0.90;;;20.00;99.90;;;;;;5060684;28;20037;-85
2021/10/06 11:54:07;;;;;;;1.10;0.70;;;20.20;99.90;;;;;;4992789;28;20133;-83
2021/10/06 12:00:47;;;;;;;;;;;;;;;;;;;;;
2021/10/06 12:12:04;;;;;;;2.55;0.80;;;21.10;99.90;;;;;;4856889;29;20121;-81
2021/10/06 12:15:23;;;;;;;4.68;0.70;;;20.30;99.90;;;;;;4858666;29;20440;-80
2021/10/06 12:19:10;;;;;;;;;;;;;;;;;;;;;
2021/10/06 12:34:01;;;;;;;4.60;1.20;;;18.50;99.90;;;;;;4791057;29;20053;-81
2021/10/06 12:44:56;;;;;;;1.65;0.90;;;18.70;99.90;;;;;;4750767;30;20519;-79
2021/10/06 14:20:14;;;;;;;3.38;1.17;;;17.80;99.90;;;;;;4926895;27;4780562;-81
2021/10/06 14:22:46;;;;;;;1.35;0.68;;;17.90;99.90;;;;;;5067835;28;20063;-81
2021/10/06 14:25:19;;;;;;;1.35;0.60;;;18.20;99.90;;;;;;5059612;28;20044;-80
2021/10/06 14:27:46;;;;;;;0.93;0.52;;;18.20;99.90;;;;;;5052461;28;20433;-79
2021/10/06 14:30:12;;;;;;;1.98;0.50;;;17.40;99.90;;;;;;5067876;28;20573;-80
2021/10/06 14:32:39;;;;;;;1.45;0.68;;;17.20;99.90;;;;;;5079739;28;20048;-81
2021/10/06 14:35:05;;;;;;;1.10;0.57;;;16.90;99.90;;;;;;5046224;28;20040;-83
2021/10/06 14:37:48;;;;;;;0.68;0.55;;;16.70;99.90;;;;;;5066842;28;20052;-81
2021/10/06 14:44:40;;;;;;;2.72;0.60;;;16.60;99.90;;;;;;5029577;28;20045;-81
2021/10/06 14:56:27;;;;;;;2.97;0.90;;;17.00;99.90;;;;;;4798302;29;20046;-81
2021/10/06 14:58:53;;;;;;;2.63;1.00;;;16.90;99.90;;;;;;4797993;29;20054;-78
2021/10/06 15:01:23;;;;;;;1.60;1.00;;;16.80;99.90;;;;;;4797552;29;20531;-81
2021/10/06 15:03:55;;;;;;;2.45;1.15;;;16.60;99.90;;;;;;4779688;29;20107;-81
2021/10/06 15:06:43;;;;;;;4.22;1.52;;;16.20;99.90;;;;;;4781913;29;20062;-82
2021/10/06 15:09:22;;;;;;;1.95;1.30;;;15.60;99.90;;;;;;4782115;29;20147;-83
2021/10/06 15:12:14;;;;;;;1.60;1.17;;;15.40;99.90;;;;;;4780264;29;20133;-82
2021/10/06 15:14:46;;;;;;;3.25;1.10;;;15.30;99.90;;;;;;4766599;29;20055;-80